Time;durP1;ratioP1;P1;durP2;ratioP2;P2;SDS_P1;SDS_P2;PMS_P1;PMS_P2;Temp;Humidity;BMP_temperature;BMP_pressure;BME280_temperature;BME280_humidity;BME280_pressure;Samples;Min_cycle;Max_cycle;Signal;HPM_P1;HPM_P2
2022/06/03 00:02:28;;;;;;;4.80;2.50;;;14.40;99.90;;;;;;6714102;88;20322;-77
2022/06/03 00:12:53;;;;;;;4.00;2.42;;;14.30;99.90;;;;;;6712256;88;20189;-77
2022/06/03 00:22:54;;;;;;;4.60;2.50;;;14.10;99.90;;;;;;6707807;88;20329;-77
2022/06/03 00:33:28;;;;;;;2.72;1.75;;;14.20;99.90;;;;;;6722825;88;20179;-77
2022/06/03 00:43:40;;;;;;;2.33;1.60;;;14.00;99.90;;;;;;6730539;88;20227;-77
2022/06/03 00:53:50;;;;;;;3.78;1.90;;;14.00;99.90;;;;;;6727796;88;20787;-76
2022/06/03 01:03:53;;;;;;;3.50;2.20;;;13.80;99.90;;;;;;6728694;88;20720;-77
2022/06/03 01:14:01;;;;;;;4.40;2.40;;;13.70;99.90;;;;;;6728423;88;20202;-77
2022/06/03 01:24:25;;;;;;;3.10;2.12;;;13.50;99.90;;;;;;6722040;88;20194;-76
2022/06/03 01:34:25;;;;;;;2.53;2.00;;;13.30;99.90;;;;;;6711793;88;20193;-76
2022/06/03 01:45:17;;;;;;;3.65;2.55;;;13.10;99.90;;;;;;6718128;88;20655;-77
2022/06/03 01:55:24;;;;;;;3.85;2.17;;;13.10;99.90;;;;;;6710902;88;20225;-76
2022/06/03 02:05:49;;;;;;;3.83;2.08;;;13.10;99.90;;;;;;6715442;88;20355;-76
2022/06/03 02:16:25;;;;;;;4.20;2.17;;;13.10;99.90;;;;;;6718632;88;20216;-77
2022/06/03 02:26:56;;;;;;;2.67;2.08;;;13.10;99.90;;;;;;6716710;88;20230;-77
2022/06/03 02:37:29;;;;;;;3.40;2.37;;;13.10;99.90;;;;;;6729805;88;21399;-76
2022/06/03 02:47:50;;;;;;;3.28;2.00;;;13.00;99.90;;;;;;6715187;88;20229;-77
2022/06/03 02:58:24;;;;;;;3.92;1.90;;;12.80;99.90;;;;;;6717962;88;20938;-77
2022/06/03 03:08:31;;;;;;;3.05;2.05;;;12.90;99.90;;;;;;6713381;88;20277;-77
2022/06/03 03:19:09;;;;;;;4.55;2.20;;;12.80;99.90;;;;;;6719623;88;20744;-77
2022/06/03 03:29:25;;;;;;;2.65;1.90;;;12.70;99.90;;;;;;6713315;88;20186;-77
2022/06/03 03:39:47;;;;;;;3.87;2.03;;;12.60;99.90;;;;;;6714546;88;20200;-77
2022/06/03 03:50:09;;;;;;;2.80;2.20;;;12.40;99.90;;;;;;6715277;88;20238;-77
2022/06/03 04:00:32;;;;;;;4.62;2.00;;;12.20;99.90;;;;;;6722427;88;20237;-77
2022/06/03 04:11:03;;;;;;;4.20;2.17;;;12.20;99.90;;;;;;6715418;88;20776;-77
2022/06/03 04:21:37;;;;;;;4.32;2.20;;;12.30;99.90;;;;;;6717701;88;20193;-77
2022/06/03 04:31:56;;;;;;;5.45;2.83;;;12.50;99.90;;;;;;6714986;88;20366;-77
2022/06/03 04:42:38;;;;;;;4.25;2.83;;;12.60;99.90;;;;;;6735667;77;20211;-81
2022/06/03 04:53:07;;;;;;;3.45;2.40;;;12.50;99.90;;;;;;6736099;88;20193;-82
2022/06/03 05:03:35;;;;;;;3.62;2.40;;;12.60;99.90;;;;;;6733030;88;20357;-82
2022/06/03 05:14:01;;;;;;;4.82;2.50;;;12.80;99.90;;;;;;6716111;88;20260;-82
2022/06/03 05:24:13;;;;;;;4.60;2.40;;;12.90;99.90;;;;;;6719575;88;20203;-82
2022/06/03 05:34:48;;;;;;;3.67;2.50;;;13.00;99.90;;;;;;6718875;88;20212;-82
2022/06/03 05:45:11;;;;;;;3.08;2.28;;;13.10;99.90;;;;;;6715716;88;20206;-81
2022/06/03 05:55:49;;;;;;;5.00;1.80;;;13.60;99.90;;;;;;6720727;88;20186;-82
2022/06/03 06:06:08;;;;;;;4.55;1.70;;;14.00;99.90;;;;;;6713188;88;20370;-81
2022/06/03 06:16:42;;;;;;;3.78;1.83;;;15.30;99.90;;;;;;6716554;88;20652;-80
2022/06/03 06:27:27;;;;;;;2.33;1.50;;;16.10;99.90;;;;;;6708856;88;20191;-80
2022/06/03 06:37:47;;;;;;;4.20;1.50;;;16.50;99.90;;;;;;6725183;88;20655;-80
2022/06/03 06:47:56;;;;;;;2.75;1.40;;;17.00;99.90;;;;;;6721689;88;20220;-79
2022/06/03 06:58:07;;;;;;;4.78;1.40;;;17.40;99.90;;;;;;6729847;88;20281;-80
2022/06/03 07:08:22;;;;;;;3.00;1.20;;;18.20;99.90;;;;;;6741360;88;20198;-80
2022/06/03 07:29:18;;;;;;;3.90;1.20;;;19.20;99.90;;;;;;6713031;88;20183;-79
2022/06/03 07:40:04;;;;;;;4.70;1.10;;;20.30;99.90;;;;;;6713519;88;20666;-79
2022/06/03 07:50:12;;;;;;;2.87;1.30;;;21.00;99.90;;;;;;6704513;88;20240;-79
2022/06/03 08:00:17;;;;;;;4.85;1.30;;;21.50;99.30;;;;;;6718146;88;20202;-79
2022/06/03 08:20:54;;;;;;;1.27;0.93;;;22.20;97.90;;;;;;6717155;88;20461;-80
2022/06/03 08:30:56;;;;;;;3.42;1.33;;;22.80;96.40;;;;;;6711020;88;20240;-80
2022/06/03 08:40:57;;;;;;;1.73;1.10;;;22.50;97.10;;;;;;6714642;88;20593;-79
2022/06/03 08:51:01;;;;;;;3.53;1.23;;;22.80;96.70;;;;;;6727066;88;20201;-79
2022/06/03 09:01:21;;;;;;;1.95;1.12;;;23.40;96.40;;;;;;6730919;88;20228;-80
2022/06/03 09:11:39;;;;;;;1.85;1.20;;;23.80;96.60;;;;;;6713928;88;20190;-80
2022/06/03 09:21:44;;;;;;;1.92;1.12;;;25.10;95.50;;;;;;6717672;88;20227;-80
2022/06/03 09:31:57;;;;;;;2.10;1.10;;;25.80;94.10;;;;;;6728340;88;20190;-79
2022/06/03 09:41:59;;;;;;;1.40;1.12;;;26.40;93.60;;;;;;6729432;88;20169;-80
2022/06/03 09:52:02;;;;;;;2.17;1.23;;;27.10;92.50;;;;;;6727796;88;20200;-80
2022/06/03 10:02:05;;;;;;;2.55;1.17;;;27.70;91.60;;;;;;6730916;88;20188;-79
2022/06/03 10:22:29;;;;;;;2.30;1.10;;;28.70;90.00;;;;;;6718969;88;20652;-77
2022/06/03 10:32:31;;;;;;;3.87;1.15;;;28.80;88.60;;;;;;6717186;88;20379;-76
2022/06/03 10:42:32;;;;;;;1.70;1.30;;;29.00;85.30;;;;;;6719384;88;20217;-76
2022/06/03 11:02:54;;;;;;;1.87;1.27;;;30.00;84.20;;;;;;6720150;88;20169;-77
2022/06/03 11:13:00;;;;;;;1.77;1.30;;;29.90;81.80;;;;;;6717185;88;20699;-77
2022/06/03 11:23:03;;;;;;;4.25;1.37;;;29.10;82.70;;;;;;6716675;88;20707;-77
2022/06/03 11:33:45;;;;;;;2.37;1.20;;;29.60;83.40;;;;;;6719144;88;20800;-77
2022/06/03 11:43:59;;;;;;;2.42;1.30;;;30.70;80.70;;;;;;6717311;88;20201;-78
2022/06/03 11:54:01;;;;;;;3.40;1.30;;;29.60;82.00;;;;;;6719990;88;20755;-77
2022/06/03 12:04:20;;;;;;;3.45;1.58;;;29.90;81.10;;;;;;6714022;88;20197;-77
2022/06/03 12:14:31;;;;;;;3.03;1.42;;;29.70;81.20;;;;;;6719718;88;20600;-77
2022/06/03 12:24:32;;;;;;;4.35;1.35;;;31.60;80.00;;;;;;6715669;88;20803;-77
2022/06/03 12:34:35;;;;;;;2.25;1.30;;;30.80;81.40;;;;;;6720891;88;20194;-77
2022/06/03 12:45:12;;;;;;;1.77;1.48;;;31.70;80.20;;;;;;6717367;88;20258;-77
2022/06/03 12:55:32;;;;;;;3.60;1.50;;;30.90;79.00;;;;;;6716357;88;20189;-78
2022/06/03 13:05:48;;;;;;;2.75;1.50;;;30.60;80.40;;;;;;6723041;88;20647;-78
2022/06/03 13:15:51;;;;;;;2.12;1.58;;;29.50;81.40;;;;;;6726150;88;21128;-78
2022/06/03 13:25:54;;;;;;;2.03;1.40;;;30.20;81.30;;;;;;6720857;88;20207;-79
2022/06/03 13:36:09;;;;;;;2.70;1.55;;;33.00;78.50;;;;;;6726432;88;20190;-79
2022/06/03 13:46:10;;;;;;;2.47;1.50;;;32.00;77.40;;;;;;6734182;88;20199;-79
2022/06/03 13:56:22;;;;;;;1.87;1.60;;;31.70;76.80;;;;;;6732815;88;20201;-79
2022/06/03 14:06:31;;;;;;;2.50;1.50;;;31.00;78.30;;;;;;6725598;88;20201;-79
2022/06/03 14:16:38;;;;;;;2.78;1.55;;;30.30;79.00;;;;;;6724243;88;20678;-79
2022/06/03 14:26:56;;;;;;;4.93;2.37;;;30.40;78.00;;;;;;6714629;88;20181;-79
2022/06/03 14:36:59;;;;;;;2.55;1.60;;;30.30;77.60;;;;;;6727200;88;20307;-78
2022/06/03 14:47:12;;;;;;;3.08;1.50;;;30.50;78.00;;;;;;6729808;88;20624;-79
2022/06/03 14:57:22;;;;;;;2.53;1.50;;;30.20;78.30;;;;;;6716551;88;20671;-79
2022/06/03 15:07:36;;;;;;;3.75;1.65;;;29.80;77.40;;;;;;6731341;88;20181;-79
2022/06/03 15:17:37;;;;;;;3.78;1.30;;;29.90;77.80;;;;;;6729890;88;20186;-79
2022/06/03 15:27:51;;;;;;;2.30;1.62;;;29.70;78.40;;;;;;6729104;88;20265;-79
2022/06/03 15:37:52;;;;;;;3.08;1.50;;;29.60;79.00;;;;;;6719272;88;20618;-80
2022/06/03 15:48:03;;;;;;;4.97;1.60;;;29.30;78.10;;;;;;6723227;88;20239;-79
2022/06/03 15:58:08;;;;;;;3.95;1.80;;;29.20;79.20;;;;;;6724951;88;20229;-77
2022/06/03 16:08:22;;;;;;;3.35;1.60;;;29.30;79.30;;;;;;6720315;88;20185;-78
2022/06/03 16:18:51;;;;;;;2.70;1.50;;;29.00;79.40;;;;;;6717808;88;20664;-77
2022/06/03 16:29:24;;;;;;;2.62;1.60;;;28.50;79.50;;;;;;6718587;88;20887;-77
2022/06/03 16:39:36;;;;;;;2.33;1.70;;;28.20;81.70;;;;;;6718704;88;20243;-77
2022/06/03 16:50:10;;;;;;;2.23;1.60;;;27.70;85.30;;;;;;6718562;88;20215;-78
2022/06/03 17:00:17;;;;;;;3.40;1.70;;;27.70;86.00;;;;;;6713335;88;20185;-77
2022/06/03 17:10:22;;;;;;;2.15;1.58;;;27.60;86.20;;;;;;6710019;88;20241;-77
2022/06/03 17:20:22;;;;;;;2.10;1.60;;;27.30;86.70;;;;;;6715570;88;20209;-76
2022/06/03 17:30:32;;;;;;;4.30;1.80;;;27.60;86.40;;;;;;6714173;88;20195;-77
2022/06/03 17:40:59;;;;;;;3.78;1.92;;;27.70;86.10;;;;;;6723140;88;20598;-77
2022/06/03 18:01:38;;;;;;;3.27;1.60;;;28.50;85.90;;;;;;6721573;88;20190;-77
2022/06/03 18:11:43;;;;;;;3.60;1.70;;;28.10;85.20;;;;;;6717049;88;20208;-77
2022/06/03 18:22:16;;;;;;;2.62;0.95;;;27.90;84.50;;;;;;6719608;88;20230;-77
2022/06/03 18:32:25;;;;;;;5.07;2.00;;;28.10;85.40;;;;;;6723401;88;20193;-77
2022/06/03 18:43:02;;;;;;;5.50;2.15;;;27.70;85.60;;;;;;6717100;88;20649;-78
2022/06/03 18:53:27;;;;;;;2.90;1.62;;;27.60;86.10;;;;;;6713827;88;20170;-77
2022/06/03 19:03:42;;;;;;;4.93;1.80;;;26.70;87.80;;;;;;6711645;88;20681;-78
2022/06/03 19:13:59;;;;;;;3.67;1.80;;;25.90;89.50;;;;;;6716300;88;20194;-77
2022/06/03 19:24:12;;;;;;;3.70;1.90;;;25.30;90.40;;;;;;6713478;88;20174;-77
2022/06/03 19:34:19;;;;;;;2.25;1.70;;;25.00;90.70;;;;;;6715657;88;20727;-77
2022/06/03 19:44:39;;;;;;;3.40;1.98;;;24.70;91.30;;;;;;6714728;88;20169;-77
2022/06/03 19:55:01;;;;;;;3.40;1.92;;;24.20;91.70;;;;;;6714610;88;20622;-77
2022/06/03 20:05:23;;;;;;;7.97;1.85;;;23.80;92.30;;;;;;6712092;88;20247;-79
2022/06/03 20:15:32;;;;;;;2.83;2.10;;;23.30;92.60;;;;;;6715099;88;20697;-76
2022/06/03 20:25:38;;;;;;;3.95;2.10;;;23.00;92.90;;;;;;6713232;88;20237;-78
2022/06/03 20:35:56;;;;;;;5.47;2.00;;;23.10;93.10;;;;;;6708071;88;20197;-80
2022/06/03 20:46:07;;;;;;;4.68;2.00;;;22.80;93.50;;;;;;6710215;88;20255;-77
2022/06/03 20:56:19;;;;;;;7.07;2.50;;;22.50;94.10;;;;;;6710109;88;20178;-76
2022/06/03 21:16:40;;;;;;;3.80;2.42;;;21.90;95.20;;;;;;6721628;88;20189;-79
2022/06/03 21:26:42;;;;;;;4.03;2.17;;;21.50;96.30;;;;;;6722778;88;20217;-78
2022/06/03 21:36:53;;;;;;;6.93;2.42;;;21.30;96.90;;;;;;6724077;88;20283;-79
2022/06/03 21:47:08;;;;;;;6.18;2.40;;;21.00;97.40;;;;;;6724574;88;20198;-79
2022/06/03 21:57:14;;;;;;;4.30;2.60;;;20.90;98.20;;;;;;6720775;88;20201;-78
2022/06/03 22:07:16;;;;;;;3.90;2.60;;;20.60;99.30;;;;;;6728919;88;21018;-80
2022/06/03 22:17:17;;;;;;;4.60;2.60;;;20.40;99.90;;;;;;6730945;88;20205;-81
2022/06/03 22:27:37;;;;;;;5.70;2.60;;;20.30;99.90;;;;;;6728381;88;20373;-79
2022/06/03 22:48:18;;;;;;;4.05;2.65;;;19.90;99.90;;;;;;6709321;88;20270;-79
2022/06/03 22:58:40;;;;;;;5.25;2.80;;;19.60;99.90;;;;;;6750043;77;20199;-79
2022/06/03 23:08:43;;;;;;;5.60;2.65;;;19.40;99.90;;;;;;6759035;88;20277;-79
2022/06/03 23:18:44;;;;;;;5.43;2.53;;;19.40;99.90;;;;;;6758127;88;20215;-80
2022/06/03 23:28:45;;;;;;;5.70;2.85;;;19.40;99.90;;;;;;6753460;88;20248;-81
2022/06/03 23:38:46;;;;;;;3.70;2.90;;;19.40;99.90;;;;;;6753479;88;20213;-82
2022/06/03 23:48:47;;;;;;;4.60;2.85;;;19.40;99.90;;;;;;6756192;88;20204;-82
2022/06/03 23:58:47;;;;;;;5.40;2.87;;;19.30;99.90;;;;;;6754444;88;20671;-81
